Time;durP1;ratioP1;P1;durP2;ratioP2;P2;SDS_P1;SDS_P2;PMS_P1;PMS_P2;Temp;Humidity;BMP_temperature;BMP_pressure;BME280_temperature;BME280_humidity;BME280_pressure;Samples;Min_cycle;Max_cycle;Signal;HPM_P1;HPM_P2
2022/01/21 02:03:28;;;;;;;23.38;12.18;;;0.00;99.90;;;;;;5859825;23;20908;31
2022/01/21 02:23:29;;;;;;;11.27;6.50;;;-0.40;99.90;;;;;;5722141;23;20095;-96
2022/01/21 02:25:55;;;;;;;9.85;5.97;;;-0.50;99.90;;;;;;5418625;23;20046;-96
2022/01/21 02:31:44;;;;;;;8.85;5.10;;;-0.60;99.90;;;;;;5988333;22;20036;-96
2022/01/21 02:35:04;;;;;;;10.85;5.70;;;-0.60;99.90;;;;;;5002445;28;20122;-96
2022/01/21 02:37:58;;;;;;;8.23;4.40;;;-0.70;99.90;;;;;;4937519;29;20531;-96
2022/01/21 03:01:05;;;;;;;8.23;4.95;;;-1.00;99.90;;;;;;5336338;22;20028;-96
2022/01/21 03:17:49;;;;;;;9.85;4.80;;;-1.20;99.90;;;;;;5556974;23;20045;-96
2022/01/21 03:20:25;;;;;;;10.10;4.70;;;-1.20;99.90;;;;;;5031903;28;20037;-96
2022/01/21 03:49:09;;;;;;;8.50;4.05;;;-1.20;99.90;;;;;;5205719;23;20070;-96
2022/01/21 03:54:17;;;;;;;10.20;4.35;;;-1.40;99.90;;;;;;5606480;23;20061;-96
2022/01/21 04:25:51;;;;;;;10.55;4.57;;;-1.80;99.90;;;;;;5803618;22;20028;-96
2022/01/21 04:50:10;;;;;;;14.60;7.05;;;-2.20;99.90;;;;;;5018913;28;20049;-96
2022/01/21 04:52:36;;;;;;;16.05;7.63;;;-2.20;99.90;;;;;;5002595;28;20029;-96
2022/01/21 04:55:06;;;;;;;15.40;6.95;;;-2.20;99.90;;;;;;5000556;28;20037;-96
2022/01/21 05:03:08;;;;;;;14.50;7.55;;;-2.40;99.90;;;;;;5926222;22;20061;-96
2022/01/21 05:05:45;;;;;;;16.88;7.55;;;-2.40;99.90;;;;;;5874056;23;20032;-96
2022/01/21 05:32:59;;;;;;;14.98;7.03;;;-2.70;99.90;;;;;;5168294;22;25084;-96
2022/01/21 15:31:32;;;;;;;13.25;7.85;;;-1.40;99.90;;;;;;5399571;22;21075;-95
2022/01/21 15:34:09;;;;;;;22.07;9.73;;;-1.00;99.90;;;;;;5555862;22;21299;31
2022/01/21 15:37:00;;;;;;;17.25;7.65;;;-1.00;99.90;;;;;;5129165;23;20060;-96
2022/01/21 15:39:35;;;;;;;;;;;-1.00;99.90;;;;;;5125813;22;20085;-96
2022/01/21 15:42:02;;;;;;;13.20;7.10;;;-0.90;99.90;;;;;;5105236;28;19998;-96
2022/01/21 15:59:12;;;;;;;15.50;7.03;;;-0.80;99.90;;;;;;5994852;23;20075;-96
2022/01/21 16:07:12;;;;;;;12.52;6.60;;;-0.90;99.90;;;;;;5531841;22;20029;-96
2022/01/21 16:09:53;;;;;;;14.48;7.03;;;-0.80;99.90;;;;;;5011182;28;20058;-96
2022/01/21 16:12:22;;;;;;;12.70;7.13;;;-0.80;99.90;;;;;;5022155;28;20038;-96
2022/01/21 16:15:00;;;;;;;22.23;7.38;;;-0.90;99.90;;;;;;5127528;23;20492;-96
2022/01/21 16:17:25;;;;;;;23.25;8.93;;;-0.90;99.90;;;;;;5029788;28;20473;-92
2022/01/21 16:20:22;;;;;;;18.15;9.10;;;-0.90;99.90;;;;;;5192994;23;20046;-96
2022/01/21 16:43:31;;;;;;;1135.40;327.33;;;-1.40;99.90;;;;;;5292584;22;20054;-96
2022/01/21 16:51:39;;;;;;;285.65;96.03;;;-1.40;99.90;;;;;;5147756;22;20060;-96
2022/01/21 16:54:08;;;;;;;328.80;141.98;;;-1.40;99.90;;;;;;5041562;28;20033;-96
2022/01/21 16:56:39;;;;;;;303.40;162.18;;;-1.40;99.90;;;;;;5039210;28;20025;-89
2022/01/21 16:59:08;;;;;;;41.35;18.55;;;-1.40;99.90;;;;;;5039483;28;20040;-95
2022/01/21 17:01:37;;;;;;;225.40;69.28;;;-1.40;99.90;;;;;;5042180;28;20104;-96
2022/01/21 17:04:05;;;;;;;622.47;252.20;;;-1.30;99.90;;;;;;5050297;28;20027;-96
2022/01/21 17:06:32;;;;;;;388.02;122.43;;;-1.30;99.90;;;;;;5063110;28;20021;-96
2022/01/21 17:08:57;;;;;;;551.90;175.57;;;-1.30;99.90;;;;;;5043754;28;20501;-92
2022/01/21 17:11:24;;;;;;;1652.07;535.53;;;-1.30;99.90;;;;;;5044224;28;20107;-95
2022/01/21 17:13:50;;;;;;;1010.95;312.10;;;-1.30;99.90;;;;;;5041686;28;20021;-96
2022/01/21 17:16:19;;;;;;;1038.53;364.80;;;-1.30;99.90;;;;;;5041908;28;20029;-96
2022/01/21 17:18:44;;;;;;;244.82;74.25;;;-1.20;99.90;;;;;;5039861;28;20029;-96
2022/01/21 17:21:10;;;;;;;827.35;285.35;;;-1.20;99.90;;;;;;5039359;28;20021;-96
2022/01/21 17:23:36;;;;;;;218.13;62.63;;;-1.20;99.90;;;;;;5038660;28;20052;-95
2022/01/21 17:26:02;;;;;;;976.35;409.45;;;-1.20;99.90;;;;;;5040879;28;20025;-96
2022/01/21 17:28:27;;;;;;;353.05;143.25;;;-1.20;99.90;;;;;;5039205;28;20082;-93
2022/01/21 17:30:56;;;;;;;445.25;195.10;;;-1.20;99.90;;;;;;5038440;28;20035;-96
2022/01/21 17:33:22;;;;;;;46.65;20.95;;;-1.20;99.90;;;;;;5038892;28;20025;-96
2022/01/21 17:35:53;;;;;;;86.07;39.65;;;-1.20;99.90;;;;;;5039377;28;20036;-96
2022/01/21 17:38:18;;;;;;;34.95;17.55;;;-1.20;99.90;;;;;;5039156;28;20075;-95
2022/01/21 17:40:52;;;;;;;209.65;60.58;;;-1.20;99.90;;;;;;5039622;28;20127;-96
2022/01/21 17:43:22;;;;;;;401.25;121.75;;;-1.20;99.90;;;;;;5038921;28;20115;-96
2022/01/21 17:45:51;;;;;;;502.95;175.10;;;-1.20;99.90;;;;;;5041302;28;20029;-95
2022/01/21 17:48:18;;;;;;;1106.53;395.95;;;-1.20;99.90;;;;;;5039344;28;20021;-96
2022/01/21 17:50:44;;;;;;;602.83;203.80;;;-1.20;99.90;;;;;;5040155;28;20118;-96
2022/01/21 17:53:15;;;;;;;1045.28;367.38;;;-1.10;99.90;;;;;;5042421;28;20128;-96
2022/01/21 17:55:44;;;;;;;263.35;77.80;;;-1.10;99.90;;;;;;5042759;28;20120;-96
2022/01/21 17:58:10;;;;;;;646.72;235.00;;;-1.10;99.90;;;;;;5040359;28;20135;-93
2022/01/21 18:00:37;;;;;;;292.73;98.97;;;-1.10;99.90;;;;;;5041406;28;20045;-96
2022/01/21 18:03:07;;;;;;;322.25;111.57;;;-1.10;99.90;;;;;;5023830;28;20033;-96
2022/01/21 18:05:33;;;;;;;754.90;279.63;;;-1.10;99.90;;;;;;5039762;28;20032;-95
2022/01/21 18:07:59;;;;;;;164.05;58.58;;;-1.00;99.90;;;;;;5039700;28;20029;-95
2022/01/21 18:10:44;;;;;;;447.13;128.70;;;-1.10;99.90;;;;;;5037888;28;20024;-96
2022/01/21 18:13:13;;;;;;;41.05;20.17;;;-1.10;99.90;;;;;;5039136;28;20021;-96
2022/01/21 18:15:39;;;;;;;37.42;19.33;;;-1.00;99.90;;;;;;5039206;28;20025;-95
2022/01/21 18:18:10;;;;;;;50.60;27.88;;;-1.00;99.90;;;;;;5038923;28;20062;-94
2022/01/21 18:20:35;;;;;;;;;;;-1.00;99.90;;;;;;5037950;28;20120;-94
2022/01/21 18:23:01;;;;;;;11.30;7.20;;;-1.00;99.90;;;;;;5039022;28;19985;-96
2022/01/21 18:25:26;;;;;;;18.48;13.95;;;-1.00;99.90;;;;;;5037964;28;20021;-93
2022/01/21 18:27:52;;;;;;;14.55;10.18;;;-1.00;99.90;;;;;;5038755;28;20028;-96
2022/01/21 18:30:21;;;;;;;9.70;6.93;;;-1.00;99.90;;;;;;5042478;28;20033;-96
2022/01/21 18:32:48;;;;;;;15.77;7.40;;;-0.90;99.90;;;;;;5041366;28;20079;-96
2022/01/21 18:35:25;;;;;;;21.08;11.27;;;-1.00;99.90;;;;;;5049349;28;20025;-96
2022/01/21 18:37:54;;;;;;;16.73;7.97;;;-0.90;99.90;;;;;;5075959;23;20107;-96
2022/01/21 18:40:21;;;;;;;13.85;7.13;;;-1.00;99.90;;;;;;5045735;28;20072;-96
2022/01/21 18:42:53;;;;;;;12.70;7.20;;;-0.90;99.90;;;;;;5045329;28;20025;-96
2022/01/21 18:45:31;;;;;;;13.52;7.57;;;-0.90;99.90;;;;;;5044926;28;20404;-96
2022/01/21 18:48:09;;;;;;;13.48;7.32;;;-0.90;99.90;;;;;;5043591;28;20035;-96
2022/01/21 18:50:35;;;;;;;24.08;6.88;;;-0.90;99.90;;;;;;5046999;28;20033;-96
2022/01/21 18:53:01;;;;;;;13.70;6.95;;;-0.90;99.90;;;;;;5042212;28;20537;-96
2022/01/21 18:55:32;;;;;;;17.23;8.35;;;-0.90;99.90;;;;;;5045507;28;20093;-96
2022/01/21 18:57:59;;;;;;;38.33;17.60;;;-0.90;99.90;;;;;;5044343;28;20025;-96
2022/01/21 19:00:25;;;;;;;60.88;29.92;;;-0.80;99.90;;;;;;5038380;28;20025;-94
2022/01/21 19:02:52;;;;;;;141.38;45.50;;;-0.80;99.90;;;;;;5039802;28;20025;-96
2022/01/21 19:05:21;;;;;;;495.58;154.27;;;-0.70;99.90;;;;;;5039377;28;20048;-96
2022/01/21 19:07:48;;;;;;;1205.15;455.85;;;-0.70;99.90;;;;;;5038515;28;20025;-95
2022/01/21 19:10:36;;;;;;;502.35;176.48;;;-0.70;99.90;;;;;;5047534;28;20029;-96
2022/01/21 19:13:03;;;;;;;1610.30;483.15;;;-0.70;99.90;;;;;;5031615;28;20014;-96
2022/01/21 19:15:33;;;;;;;520.75;189.05;;;-0.70;99.90;;;;;;5025941;28;20009;-96
2022/01/21 19:18:01;;;;;;;370.05;104.50;;;-0.70;99.90;;;;;;5115102;23;20049;-96
2022/01/21 19:23:36;;;;;;;596.38;208.18;;;-0.80;99.90;;;;;;5058365;23;20110;-96
2022/01/21 19:26:04;;;;;;;450.40;153.63;;;-0.80;99.90;;;;;;5047259;28;20025;-94
2022/01/21 19:37:17;;;;;;;;;;;-1.00;99.90;;;;;;5122647;22;20052;-95
2022/01/21 19:40:35;;;;;;;217.85;86.93;;;-1.00;99.90;;;;;;5004344;28;19909;-96
2022/01/21 19:43:05;;;;;;;79.70;28.63;;;-1.00;99.90;;;;;;5112626;23;20099;-96
2022/01/21 19:45:31;;;;;;;45.58;25.05;;;-1.10;99.90;;;;;;5038981;23;20591;-96
2022/01/21 19:48:10;;;;;;;31.92;16.40;;;-1.10;99.90;;;;;;5117048;23;20050;-96
2022/01/21 19:51:04;;;;;;;24.75;13.77;;;-1.10;99.90;;;;;;4966000;28;20047;-96
2022/01/21 19:53:30;;;;;;;;;;;-1.10;99.90;;;;;;4950980;28;20035;-96
2022/01/21 19:59:11;;;;;;;22.17;12.00;;;-1.20;99.90;;;;;;5051877;22;20065;-96
2022/01/21 20:10:19;;;;;;;34.55;20.17;;;-1.10;99.90;;;;;;5047274;28;20048;-96
2022/01/21 20:12:51;;;;;;;20.15;14.32;;;-1.20;99.90;;;;;;5022385;28;20026;-96
2022/01/21 20:15:31;;;;;;;25.42;16.13;;;-1.10;99.90;;;;;;5023831;28;20112;-96
2022/01/21 20:17:56;;;;;;;26.77;13.93;;;-1.10;99.90;;;;;;5024233;28;20029;-96
2022/01/21 20:20:23;;;;;;;30.05;12.65;;;-1.10;99.90;;;;;;5023982;28;20116;-95
2022/01/21 20:22:49;;;;;;;22.48;11.30;;;-1.10;99.90;;;;;;5049874;28;20052;-96
2022/01/21 20:25:15;;;;;;;17.33;9.30;;;-1.00;99.90;;;;;;5026480;28;20029;-96
2022/01/21 20:27:41;;;;;;;16.40;9.05;;;-1.00;99.90;;;;;;5023073;28;20112;-96
2022/01/21 20:30:10;;;;;;;20.75;9.93;;;-1.00;99.90;;;;;;5022759;28;20022;-96
2022/01/21 20:32:39;;;;;;;20.75;9.15;;;-1.00;99.90;;;;;;5023603;28;20432;-96
2022/01/21 20:35:09;;;;;;;21.08;10.43;;;-1.00;99.90;;;;;;5023932;28;20029;-96
2022/01/21 20:37:39;;;;;;;;;;;-1.00;99.90;;;;;;5028470;28;20057;-94
2022/01/21 20:42:59;;;;;;;22.23;11.60;;;-1.00;99.90;;;;;;5042916;28;20021;-96
2022/01/21 20:45:27;;;;;;;39.38;16.77;;;-1.00;99.90;;;;;;5021714;28;20109;-96
2022/01/21 20:47:59;;;;;;;19.98;11.18;;;-1.00;99.90;;;;;;5043493;28;20172;-96
2022/01/21 20:50:25;;;;;;;20.23;9.85;;;-1.00;99.90;;;;;;5021360;28;20095;-95
2022/01/21 20:52:53;;;;;;;19.17;9.50;;;-1.00;99.90;;;;;;5021514;28;20029;-92
2022/01/21 20:55:19;;;;;;;18.15;8.65;;;-1.00;99.90;;;;;;5030224;28;20033;-96
2022/01/21 20:57:45;;;;;;;13.95;7.78;;;-0.90;99.90;;;;;;5026077;28;20041;-96
2022/01/21 21:00:15;;;;;;;19.38;10.25;;;-0.90;99.90;;;;;;5027441;28;20021;-96
2022/01/21 21:02:42;;;;;;;17.83;9.75;;;-0.90;99.90;;;;;;5024168;28;20022;-96
2022/01/21 21:05:08;;;;;;;16.35;8.48;;;-0.90;99.90;;;;;;5029831;28;20056;-96
2022/01/21 21:11:18;;;;;;;13.30;8.18;;;-0.90;99.90;;;;;;5018804;28;20138;-94
2022/01/21 21:13:50;;;;;;;18.77;8.20;;;-0.90;99.90;;;;;;5008237;28;20062;-96
2022/01/21 21:16:19;;;;;;;17.05;8.85;;;-0.90;99.90;;;;;;5023595;28;20055;-96
2022/01/21 21:24:05;;;;;;;12.50;7.65;;;-0.90;99.90;;;;;;5021724;28;20022;-91
2022/01/21 21:26:47;;;;;;;12.13;8.02;;;-0.90;99.90;;;;;;5022610;28;20152;-95
2022/01/21 21:29:43;;;;;;;14.35;7.72;;;-0.90;99.90;;;;;;5018467;28;20040;-96
2022/01/21 23:00:17;;;;;;;16.90;9.55;;;-1.60;99.90;;;;;;5035044;28;20044;-94
2022/01/21 23:02:46;;;;;;;15.25;8.10;;;-1.50;99.90;;;;;;5020450;28;20021;-96
2022/01/21 23:05:14;;;;;;;15.63;8.75;;;-1.50;99.90;;;;;;5040507;28;20063;-95
2022/01/21 23:07:40;;;;;;;15.05;8.07;;;-1.50;99.90;;;;;;5057011;23;20053;-95
2022/01/21 23:10:15;;;;;;;19.40;8.82;;;-1.40;99.90;;;;;;5041646;28;20066;-96
2022/01/21 23:12:42;;;;;;;21.90;8.25;;;-1.40;99.90;;;;;;5038250;28;20045;-96
2022/01/21 23:15:08;;;;;;;18.88;8.18;;;-1.30;99.90;;;;;;5040626;28;20036;-94
2022/01/21 23:17:35;;;;;;;18.02;8.68;;;-1.30;99.90;;;;;;5036646;28;20060;-95
2022/01/21 23:20:12;;;;;;;14.70;7.68;;;-1.20;99.90;;;;;;5038402;28;20434;-96
2022/01/21 23:22:40;;;;;;;21.08;9.07;;;-1.20;99.90;;;;;;5037984;28;20436;-96
2022/01/21 23:25:15;;;;;;;18.27;9.05;;;-1.10;99.90;;;;;;5039675;28;20029;-96
2022/01/21 23:27:43;;;;;;;14.63;9.05;;;-1.10;99.90;;;;;;5040475;28;20025;-95
2022/01/21 23:30:12;;;;;;;12.73;8.25;;;-1.10;99.90;;;;;;5040811;28;20029;-93
2022/01/21 23:32:41;;;;;;;17.80;8.40;;;-1.10;99.90;;;;;;5037701;28;20025;-94
2022/01/21 23:35:12;;;;;;;16.92;8.23;;;-1.10;99.90;;;;;;5039199;28;20428;-96
2022/01/21 23:37:53;;;;;;;16.73;7.85;;;-1.10;99.90;;;;;;5056582;28;20083;-96
2022/01/21 23:40:25;;;;;;;11.25;6.95;;;-1.10;99.90;;;;;;5038696;28;20032;-93
2022/01/21 23:42:53;;;;;;;13.88;7.07;;;-1.10;99.90;;;;;;5041039;28;20547;-93
2022/01/21 23:45:21;;;;;;;15.35;7.70;;;-1.10;99.90;;;;;;5041202;28;20028;-96
2022/01/21 23:47:52;;;;;;;17.20;7.40;;;-1.20;99.90;;;;;;5043248;28;20082;-96
2022/01/21 23:50:22;;;;;;;14.13;6.88;;;-1.20;99.90;;;;;;5041711;28;20029;-96
2022/01/21 23:53:08;;;;;;;13.50;6.85;;;-1.20;99.90;;;;;;5041081;28;20033;-96
2022/01/21 23:55:34;;;;;;;14.95;8.10;;;-1.20;99.90;;;;;;5046968;28;20025;-94
2022/01/21 23:58:03;;;;;;;13.02;7.28;;;-1.20;99.90;;;;;;5047714;28;20048;-96
